Time;durP1;ratioP1;P1;durP2;ratioP2;P2;SDS_P1;SDS_P2;PMS_P1;PMS_P2;Temp;Humidity;BMP_temperature;BMP_pressure;BME280_temperature;BME280_humidity;BME280_pressure;Samples;Min_cycle;Max_cycle;Signal;HPM_P1;HPM_P2
2022/07/08 00:01:09;;;;;;;7.75;4.40;;;;;;;25.29;54.07;100658.53;2094378;28;20048;-74
2022/07/08 00:02:30;;;;;;;10.70;4.72;;;;;;;25.31;54.40;100666.56;2092074;28;20067;-74
2022/07/08 00:03:53;;;;;;;10.50;5.32;;;;;;;25.31;54.17;100663.88;2108745;28;20048;-74
2022/07/08 00:05:14;;;;;;;9.48;4.30;;;;;;;25.31;54.35;100669.28;2105021;28;20075;-74
2022/07/08 00:06:37;;;;;;;9.98;4.78;;;;;;;25.30;54.49;100662.97;2105415;28;20056;-74
2022/07/08 00:07:59;;;;;;;10.27;4.68;;;;;;;25.31;54.40;100656.63;2094409;28;20139;-74
2022/07/08 00:09:20;;;;;;;7.05;4.25;;;;;;;25.30;54.41;100654.00;2100158;28;20047;-74
2022/07/08 00:10:43;;;;;;;9.02;4.88;;;;;;;25.29;54.58;100647.72;2102844;28;20139;-74
2022/07/08 00:12:05;;;;;;;8.02;4.15;;;;;;;25.29;54.81;100652.22;2111106;28;20048;-74
2022/07/08 00:13:28;;;;;;;6.70;4.05;;;;;;;25.27;54.62;100654.16;2096733;28;20090;-74
2022/07/08 00:14:50;;;;;;;7.35;4.35;;;;;;;25.26;54.52;100642.47;2100236;28;20077;-74
2022/07/08 00:16:14;;;;;;;10.18;4.57;;;;;;;25.27;54.57;100656.84;2102938;28;20398;-75
2022/07/08 00:17:35;;;;;;;7.53;4.68;;;;;;;25.25;54.61;100654.22;2102769;28;20047;-74
2022/07/08 00:18:58;;;;;;;10.82;4.82;;;;;;;25.26;54.48;100655.09;2111135;28;20616;-74
2022/07/08 00:20:20;;;;;;;9.18;4.90;;;;;;;25.24;54.60;100652.47;2105479;28;20044;-74
2022/07/08 00:21:43;;;;;;;7.78;4.45;;;;;;;25.23;54.35;100652.53;2104420;28;20047;-74
2022/07/08 00:23:06;;;;;;;8.18;4.40;;;;;;;25.24;54.62;100657.88;2110924;28;20039;-74
2022/07/08 00:24:27;;;;;;;6.63;4.55;;;;;;;25.24;54.50;100656.97;2111209;28;20103;-74
2022/07/08 00:25:50;;;;;;;10.60;5.07;;;;;;;25.21;54.33;100663.41;2110774;28;20059;-74
2022/07/08 00:27:13;;;;;;;8.75;5.35;;;;;;;25.21;54.29;100665.22;2102524;28;20044;-74
2022/07/08 00:28:36;;;;;;;7.85;4.95;;;;;;;25.19;54.61;100653.63;2102769;28;20040;-74
2022/07/08 00:29:58;;;;;;;10.50;4.70;;;;;;;25.19;54.49;100662.63;2108502;28;20043;-75
2022/07/08 00:31:22;;;;;;;9.43;5.03;;;;;;;25.18;54.54;100663.56;2113771;28;20047;-74
2022/07/08 00:32:45;;;;;;;7.70;4.80;;;;;;;25.18;54.85;100670.78;2111102;28;20066;-74
2022/07/08 00:34:07;;;;;;;10.13;4.97;;;;;;;25.19;54.95;100667.13;2113537;28;20528;-74
2022/07/08 00:35:29;;;;;;;11.88;4.60;;;;;;;25.19;54.88;100668.03;2110677;28;20047;-74
2022/07/08 00:36:52;;;;;;;7.18;4.57;;;;;;;25.20;55.02;100672.47;2111193;28;20135;-74
2022/07/08 00:38:14;;;;;;;8.80;4.60;;;;;;;25.17;55.01;100666.31;2113458;28;20643;-74
2022/07/08 00:39:38;;;;;;;9.65;4.93;;;;;;;25.16;55.43;100670.84;2102529;28;20040;-74
2022/07/08 00:41:00;;;;;;;7.32;5.20;;;;;;;25.16;55.53;100669.97;2108404;28;20045;-74
2022/07/08 00:42:23;;;;;;;6.68;4.70;;;;;;;25.14;55.68;100667.31;2110548;28;20050;-74
2022/07/08 00:43:48;;;;;;;12.93;5.45;;;;;;;25.14;55.80;100667.31;2111118;28;20412;-75
2022/07/08 00:45:11;;;;;;;7.53;4.97;;;;;;;25.14;56.05;100666.47;2102820;28;20052;-74
2022/07/08 00:46:35;;;;;;;8.80;5.10;;;;;;;25.12;56.32;100658.44;2108323;28;20060;-74
2022/07/08 00:47:57;;;;;;;9.30;5.15;;;;;;;25.14;56.41;100650.28;2110704;28;20474;-75
2022/07/08 00:49:20;;;;;;;11.18;5.20;;;;;;;25.15;56.53;100663.69;2110576;28;20066;-74
2022/07/08 00:50:41;;;;;;;12.45;4.95;;;;;;;25.16;56.55;100656.47;2110919;28;20048;-74
2022/07/08 00:52:05;;;;;;;9.77;4.30;;;;;;;25.16;57.02;100664.56;2111048;28;20653;-74
2022/07/08 00:53:27;;;;;;;7.85;4.93;;;;;;;25.15;57.12;100657.41;2104839;28;20130;-74
2022/07/08 00:54:50;;;;;;;8.07;4.88;;;;;;;25.15;57.06;100663.69;2110595;28;20142;-74
2022/07/08 00:56:12;;;;;;;9.93;5.88;;;;;;;25.16;57.30;100651.06;2111216;28;20557;-74
2022/07/08 00:57:37;;;;;;;8.52;4.50;;;;;;;25.13;57.23;100657.50;2102312;28;20456;-74
2022/07/08 00:58:59;;;;;;;9.88;5.30;;;;;;;25.12;57.31;100657.56;2108779;28;20055;-75
2022/07/08 01:00:21;;;;;;;9.40;5.38;;;;;;;25.08;57.26;100656.81;2110786;28;20161;-74
2022/07/08 01:01:45;;;;;;;10.43;4.53;;;;;;;25.06;57.31;100656.03;2110553;28;20071;-74
2022/07/08 01:03:08;;;;;;;8.35;4.88;;;;;;;25.04;57.83;100655.19;2110809;28;20520;-74
2022/07/08 01:04:32;;;;;;;10.77;5.47;;;;;;;25.01;57.78;100648.09;2110843;28;20039;-75
2022/07/08 01:05:53;;;;;;;10.75;5.63;;;;;;;25.01;58.09;100644.53;2110693;28;20047;-74
2022/07/08 01:07:16;;;;;;;8.52;4.22;;;;;;;25.00;57.96;100646.38;2102173;28;20044;-74
2022/07/08 01:08:39;;;;;;;8.68;4.82;;;;;;;24.99;58.25;100647.31;2099626;28;20044;-74
2022/07/08 01:10:02;;;;;;;9.00;4.93;;;;;;;24.99;58.12;100652.72;2100137;28;20070;-74
2022/07/08 01:11:26;;;;;;;8.95;5.13;;;;;;;24.98;58.58;100655.47;2107983;28;20105;-74
2022/07/08 01:12:49;;;;;;;9.73;4.45;;;;;;;24.97;58.64;100651.03;2110957;28;20043;-74
2022/07/08 01:14:10;;;;;;;10.70;5.57;;;;;;;24.94;58.98;100643.09;2110354;28;20094;-74
2022/07/08 01:15:33;;;;;;;8.25;5.82;;;;;;;24.93;59.15;100658.41;2110397;28;20075;-74
2022/07/08 01:16:57;;;;;;;9.85;5.00;;;;;;;24.92;59.02;100653.94;2102395;28;20046;-75
2022/07/08 01:18:21;;;;;;;9.07;5.47;;;;;;;24.92;59.17;100645.84;2102359;28;20082;-74
2022/07/08 01:19:43;;;;;;;11.30;4.75;;;;;;;24.91;59.30;100654.00;2108523;28;20104;-74
2022/07/08 01:21:07;;;;;;;9.10;5.07;;;;;;;24.91;59.22;100654.00;2110527;28;20463;-74
2022/07/08 01:22:29;;;;;;;8.57;4.97;;;;;;;24.91;59.17;100646.78;2085326;28;20049;-73
2022/07/08 01:23:51;;;;;;;9.48;5.72;;;;;;;24.91;59.29;100659.41;2091444;28;20485;-74
2022/07/08 01:25:13;;;;;;;8.95;5.07;;;;;;;24.89;59.65;100650.44;2093801;28;20050;-74
2022/07/08 01:26:36;;;;;;;9.90;5.15;;;;;;;24.89;59.39;100655.84;2093933;28;20048;-75
2022/07/08 01:27:57;;;;;;;9.93;5.38;;;;;;;24.85;59.63;100652.44;2085612;28;20079;-74
2022/07/08 01:29:20;;;;;;;12.20;4.85;;;;;;;24.84;59.50;100650.66;2091032;28;20057;-74
2022/07/08 01:30:42;;;;;;;10.88;5.57;;;;;;;24.84;59.67;100653.38;2093668;28;20064;-74
2022/07/08 01:32:05;;;;;;;11.88;6.20;;;;;;;24.83;59.57;100642.63;2093841;28;20222;-74
2022/07/08 01:33:27;;;;;;;10.48;5.25;;;;;;;24.82;59.82;100647.16;2093940;28;20155;-74
2022/07/08 01:34:50;;;;;;;14.68;5.03;;;;;;;24.80;59.72;100643.66;2093705;28;20078;-74
2022/07/08 01:36:13;;;;;;;9.48;5.03;;;;;;;24.77;59.96;100638.38;2093871;28;20071;-74
2022/07/08 01:37:35;;;;;;;9.27;5.30;;;;;;;24.77;60.19;100640.22;2094108;28;20059;-74
2022/07/08 01:38:58;;;;;;;13.07;5.90;;;;;;;24.75;60.22;100642.97;2093527;28;20340;-74
2022/07/08 01:40:19;;;;;;;14.68;5.50;;;;;;;24.73;59.99;100639.47;2093796;28;20162;-74
2022/07/08 01:41:41;;;;;;;7.95;4.63;;;;;;;24.73;59.99;100644.00;2093715;28;20048;-74
2022/07/08 01:43:06;;;;;;;10.50;5.18;;;;;;;24.73;60.20;100642.19;2096319;28;20049;-74
2022/07/08 01:44:27;;;;;;;12.02;4.97;;;;;;;24.72;60.32;100644.94;2094207;28;20169;-74
2022/07/08 01:45:50;;;;;;;10.75;5.22;;;;;;;24.72;60.20;100643.13;2093624;28;20047;-73
2022/07/08 01:47:12;;;;;;;12.32;4.90;;;;;;;24.73;60.29;100649.41;2093110;28;20037;-74
2022/07/08 01:48:35;;;;;;;10.07;5.93;;;;;;;24.75;60.50;100644.78;2085586;28;20056;-74
2022/07/08 01:49:56;;;;;;;12.50;5.30;;;;;;;24.76;60.41;100647.44;2091171;28;20036;-74
2022/07/08 01:51:20;;;;;;;10.35;5.18;;;;;;;24.77;60.73;100651.00;2093396;28;20052;-74
2022/07/08 01:52:41;;;;;;;12.43;6.20;;;;;;;24.77;60.62;100646.50;2096480;28;20139;-73
2022/07/08 01:54:04;;;;;;;8.52;4.55;;;;;;;24.79;60.59;100646.44;2093708;28;20052;-74
2022/07/08 01:55:26;;;;;;;6.68;4.47;;;;;;;24.81;60.79;100661.59;2093753;28;20079;-74
2022/07/08 01:56:48;;;;;;;8.77;5.07;;;;;;;24.83;60.69;100658.84;2085598;28;20062;-74
2022/07/08 01:58:10;;;;;;;8.57;4.75;;;;;;;24.84;60.45;100664.19;2093270;28;20079;-74
2022/07/08 01:59:32;;;;;;;8.15;5.25;;;;;;;24.83;60.32;100669.63;2085425;28;20041;-74
2022/07/08 02:00:55;;;;;;;11.13;5.03;;;;;;;24.82;60.17;100670.56;2091031;28;20075;-74
2022/07/08 02:02:17;;;;;;;9.43;4.95;;;;;;;24.82;60.15;100662.47;2093696;28;20052;-74
2022/07/08 02:03:40;;;;;;;7.75;4.70;;;;;;;24.82;60.07;100675.97;2093606;28;20051;-74
2022/07/08 02:05:01;;;;;;;8.27;5.30;;;;;;;24.81;60.26;100676.97;2093491;28;20053;-74
2022/07/08 02:06:25;;;;;;;10.45;4.50;;;;;;;24.80;59.83;100667.09;2093377;28;20066;-74
2022/07/08 02:07:47;;;;;;;8.93;5.07;;;;;;;24.79;59.79;100676.13;2093662;28;20510;-74
2022/07/08 02:09:09;;;;;;;9.00;4.97;;;;;;;24.78;59.51;100672.56;2088146;28;20052;-74
2022/07/08 02:12:18;;;;;;;8.48;4.50;;;;;;;24.78;59.42;100661.75;2091031;28;20422;-74
2022/07/08 02:12:20;;;;;;;11.55;5.22;;;;;;;24.78;59.09;100672.56;2104318;28;20059;-74
2022/07/08 02:13:41;;;;;;;9.63;5.20;;;;;;;24.80;58.76;100678.78;2096291;28;20502;-74
2022/07/08 02:15:06;;;;;;;9.20;4.78;;;;;;;24.81;58.09;100666.16;2093601;28;20135;-74
2022/07/08 02:16:28;;;;;;;7.53;4.40;;;;;;;24.80;58.12;100667.97;2093784;28;20055;-74
2022/07/08 02:17:50;;;;;;;11.93;6.03;;;;;;;24.81;58.09;100668.84;2093638;28;20151;-74
2022/07/08 02:19:12;;;;;;;9.70;4.75;;;;;;;24.78;57.79;100650.94;2085002;28;20174;-74
2022/07/08 02:20:34;;;;;;;8.98;4.70;;;;;;;24.78;57.88;100668.97;2090691;28;20037;-74
2022/07/08 02:21:57;;;;;;;9.63;4.55;;;;;;;24.78;57.67;100671.69;2097463;28;20109;-74
2022/07/08 02:23:20;;;;;;;9.00;4.68;;;;;;;24.80;57.36;100659.88;2107268;28;20055;-73
2022/07/08 02:24:41;;;;;;;8.32;4.78;;;;;;;24.79;57.17;100674.31;2101833;28;20498;-74
2022/07/08 02:26:04;;;;;;;7.15;4.53;;;;;;;24.78;57.25;100664.44;2107355;28;20105;-74
2022/07/08 02:27:25;;;;;;;8.30;4.82;;;;;;;24.79;56.96;100662.63;2110176;28;20107;-74
2022/07/08 02:28:48;;;;;;;6.53;3.97;;;;;;;24.80;56.78;100673.38;2110171;28;20063;-74
2022/07/08 02:30:12;;;;;;;7.75;4.60;;;;;;;24.82;56.75;100667.88;2113100;28;20035;-74
2022/07/08 02:31:33;;;;;;;9.15;5.20;;;;;;;24.82;56.82;100670.56;2110405;28;20071;-74
2022/07/08 02:32:56;;;;;;;9.35;5.18;;;;;;;24.80;56.78;100677.91;2101336;28;20086;-75
2022/07/08 02:34:18;;;;;;;9.07;4.43;;;;;;;24.79;56.90;100684.25;2107807;28;20091;-75
2022/07/08 02:35:41;;;;;;;9.07;4.90;;;;;;;24.77;56.78;100676.19;2101638;28;20071;-74
2022/07/08 02:37:04;;;;;;;8.50;4.88;;;;;;;24.76;56.77;100689.75;2104428;28;20448;-74
2022/07/08 02:38:27;;;;;;;10.88;4.80;;;;;;;24.73;56.65;100682.69;2101887;28;20063;-74
2022/07/08 02:39:49;;;;;;;7.45;4.78;;;;;;;24.72;56.57;100683.63;2101882;28;20677;-74
2022/07/08 02:41:12;;;;;;;7.63;4.25;;;;;;;24.71;56.65;100683.69;2101817;28;20059;-74
2022/07/08 02:42:34;;;;;;;9.13;4.93;;;;;;;24.72;56.89;100680.06;2099119;28;20059;-74
2022/07/08 02:43:56;;;;;;;8.27;4.80;;;;;;;24.72;56.58;100686.34;2096197;28;20044;-74
2022/07/08 02:45:18;;;;;;;7.22;4.47;;;;;;;24.73;56.59;100690.78;2101935;28;20068;-74
2022/07/08 02:46:41;;;;;;;11.65;4.82;;;;;;;24.73;56.61;100688.09;2087670;28;20056;-75
2022/07/08 02:48:04;;;;;;;8.02;5.07;;;;;;;24.76;56.73;100692.47;2090770;28;20442;-75
2022/07/08 02:49:26;;;;;;;8.55;4.95;;;;;;;24.77;56.69;100694.22;2097259;28;20048;-75
2022/07/08 02:50:48;;;;;;;8.98;5.18;;;;;;;24.78;56.59;100695.97;2101966;28;20048;-75
2022/07/08 02:52:12;;;;;;;9.18;4.35;;;;;;;24.78;56.79;100691.47;2101805;28;20083;-74
2022/07/08 02:53:33;;;;;;;10.48;5.70;;;;;;;24.81;56.54;100690.47;2101706;28;20044;-74
2022/07/08 02:54:56;;;;;;;10.02;5.00;;;;;;;24.78;56.54;100680.66;2104611;28;20252;-74
2022/07/08 02:56:17;;;;;;;8.45;5.25;;;;;;;24.80;56.95;100680.59;2101880;28;20047;-74
2022/07/08 02:57:40;;;;;;;8.20;4.32;;;;;;;24.81;56.64;100685.91;2101741;28;20052;-74
2022/07/08 02:59:02;;;;;;;8.45;4.68;;;;;;;24.81;56.86;100682.34;2105952;28;20071;-74
2022/07/08 03:00:25;;;;;;;9.73;5.20;;;;;;;24.83;56.66;100683.16;2106045;28;20513;-74
2022/07/08 03:01:47;;;;;;;10.13;5.20;;;;;;;24.84;56.46;100687.59;2095025;28;20051;-74
2022/07/08 03:03:09;;;;;;;8.30;4.78;;;;;;;24.85;56.57;100686.66;2100420;28;20056;-75
2022/07/08 03:04:31;;;;;;;6.70;4.30;;;;;;;24.83;56.42;100684.03;2094904;28;20048;-75
2022/07/08 03:05:52;;;;;;;10.10;5.18;;;;;;;24.82;56.73;100687.66;2092346;28;20068;-74
2022/07/08 03:07:17;;;;;;;9.32;5.32;;;;;;;24.81;56.57;100693.16;2094766;28;20076;-74
2022/07/08 03:08:39;;;;;;;10.48;4.90;;;;;;;24.76;56.82;100685.25;2100896;28;20048;-74
2022/07/08 03:10:02;;;;;;;10.63;5.05;;;;;;;24.76;56.98;100681.66;2103432;28;20037;-74
2022/07/08 03:11:23;;;;;;;7.93;4.80;;;;;;;24.75;56.73;100688.00;2094887;28;20044;-74
2022/07/08 03:12:46;;;;;;;9.15;5.00;;;;;;;24.75;56.80;100685.28;2100506;28;20177;-75
2022/07/08 03:14:09;;;;;;;10.98;5.45;;;;;;;24.75;56.87;100686.19;2103397;28;20052;-75
2022/07/08 03:15:30;;;;;;;8.18;4.65;;;;;;;24.74;57.27;100681.75;2102981;28;20527;-73
2022/07/08 03:16:53;;;;;;;8.35;5.25;;;;;;;24.76;57.03;100681.66;2094876;28;20047;-75
2022/07/08 03:18:15;;;;;;;11.75;5.35;;;;;;;24.76;57.34;100671.75;2100509;28;20044;-74
2022/07/08 03:19:38;;;;;;;8.43;4.47;;;;;;;24.78;57.09;100675.25;2103101;28;20135;-74
2022/07/08 03:21:00;;;;;;;8.13;4.45;;;;;;;24.81;57.00;100674.25;2094742;28;20068;-74
2022/07/08 03:22:24;;;;;;;9.18;4.68;;;;;;;24.83;56.89;100680.44;2107783;28;20043;-75
2022/07/08 03:23:46;;;;;;;9.20;5.50;;;;;;;24.84;56.97;100679.50;2111600;28;20580;-74
2022/07/08 03:25:09;;;;;;;9.52;4.82;;;;;;;24.86;57.06;100678.50;2114340;28;20052;-75
2022/07/08 03:26:31;;;;;;;9.73;5.15;;;;;;;24.91;57.18;100676.50;2111698;28;20112;-75
2022/07/08 03:27:53;;;;;;;8.00;4.63;;;;;;;24.96;56.88;100674.47;2105461;28;20036;-74
2022/07/08 03:29:16;;;;;;;10.20;5.22;;;;;;;25.05;56.79;100675.88;2111435;28;20039;-74
2022/07/08 03:30:37;;;;;;;9.40;4.50;;;;;;;25.13;56.83;100686.34;2111402;28;20083;-74
2022/07/08 03:32:00;;;;;;;10.32;4.90;;;;;;;25.21;56.59;100689.53;2111333;28;20046;-74
2022/07/08 03:33:21;;;;;;;8.40;4.80;;;;;;;25.27;56.47;100687.44;2111603;28;20043;-75
2022/07/08 03:34:44;;;;;;;8.38;4.15;;;;;;;25.35;56.55;100687.97;2111312;28;20044;-74
2022/07/08 03:36:08;;;;;;;8.88;4.50;;;;;;;25.44;56.51;100688.50;2111261;28;20107;-74
2022/07/08 03:37:31;;;;;;;6.72;4.28;;;;;;;25.51;56.51;100690.84;2107871;28;20074;-74
2022/07/08 03:38:53;;;;;;;7.22;4.20;;;;;;;25.59;56.59;100704.03;2103013;28;20051;-74
2022/07/08 03:41:56;;;;;;;9.27;4.50;;;;;;;25.75;56.21;100710.44;2105314;28;20103;-74
2022/07/08 03:43:17;;;;;;;9.20;4.57;;;;;;;25.84;56.24;100701.91;2102412;28;20134;-74
2022/07/08 03:44:39;;;;;;;6.95;4.20;;;;;;;25.92;56.38;100704.25;2092786;28;20114;-74
2022/07/08 03:46:01;;;;;;;8.30;4.80;;;;;;;25.99;56.20;100701.13;2100189;28;20127;-74
2022/07/08 03:47:23;;;;;;;8.55;4.68;;;;;;;26.08;56.19;100702.53;2102790;28;20091;-74
2022/07/08 03:48:46;;;;;;;9.98;4.53;;;;;;;26.16;55.91;100703.03;2102025;28;20592;-74
2022/07/08 03:50:10;;;;;;;8.90;4.72;;;;;;;26.25;55.71;100699.03;2103520;28;20059;-74
2022/07/08 03:51:32;;;;;;;7.60;4.25;;;;;;;26.31;55.64;100699.59;2102444;28;20517;-74
2022/07/08 03:52:55;;;;;;;6.97;4.47;;;;;;;26.41;55.31;100694.56;2102566;28;20048;-75
2022/07/08 03:54:17;;;;;;;9.77;4.65;;;;;;;26.49;54.98;100700.47;2105266;28;20073;-75
2022/07/08 03:55:39;;;;;;;8.95;4.72;;;;;;;26.58;54.74;100705.44;2102683;28;20048;-74
2022/07/08 03:57:01;;;;;;;7.63;4.35;;;;;;;26.67;54.73;100701.34;2102154;28;20094;-74
2022/07/08 03:58:23;;;;;;;6.78;4.15;;;;;;;26.73;54.13;100701.91;2103864;28;20048;-74
2022/07/08 03:59:45;;;;;;;12.88;4.15;;;;;;;26.82;54.22;100698.72;2101953;28;20071;-74
2022/07/08 04:01:08;;;;;;;11.27;4.63;;;;;;;26.93;54.30;100699.06;2102603;28;20048;-75
2022/07/08 04:02:30;;;;;;;11.32;4.82;;;;;;;27.04;53.89;100698.50;2102670;28;20052;-74
2022/07/08 04:03:53;;;;;;;8.88;4.38;;;;;;;27.16;53.82;100697.84;2101986;28;20036;-75
2022/07/08 04:05:14;;;;;;;8.35;4.30;;;;;;;27.26;53.30;100701.81;2101626;28;20683;-75
2022/07/08 04:06:37;;;;;;;9.18;4.15;;;;;;;27.34;53.14;100702.25;2094224;28;20044;-74
2022/07/08 04:08:00;;;;;;;5.93;3.50;;;;;;;27.44;52.91;100694.47;2099197;28;20583;-73
2022/07/08 04:09:22;;;;;;;10.38;4.28;;;;;;;27.54;52.72;100697.59;2100212;28;20044;-74
2022/07/08 04:10:44;;;;;;;8.68;4.95;;;;;;;27.65;52.40;100695.16;2102627;28;20086;-74
2022/07/08 04:12:07;;;;;;;7.90;4.75;;;;;;;27.76;52.13;100690.03;2102340;28;20044;-74
2022/07/08 04:13:30;;;;;;;7.63;4.25;;;;;;;27.86;51.59;100703.94;2094161;28;20072;-74
2022/07/08 04:14:51;;;;;;;8.43;4.45;;;;;;;27.94;51.24;100699.81;2108390;28;20044;-74
2022/07/08 04:16:15;;;;;;;6.32;4.47;;;;;;;28.01;51.12;100695.81;2105125;28;20051;-74
2022/07/08 04:17:36;;;;;;;7.70;4.30;;;;;;;28.11;50.82;100694.28;2102433;28;20051;-74
2022/07/08 04:18:59;;;;;;;8.98;4.13;;;;;;;28.22;50.49;100693.72;2103360;28;20131;-74
2022/07/08 04:20:20;;;;;;;7.03;4.10;;;;;;;28.33;50.07;100693.94;2102399;28;20063;-74
2022/07/08 04:21:43;;;;;;;6.05;3.95;;;;;;;28.46;49.74;100691.38;2094882;28;20194;-74
2022/07/08 04:23:06;;;;;;;5.70;3.88;;;;;;;28.59;49.42;100686.09;2099685;28;20087;-74
2022/07/08 04:24:28;;;;;;;7.57;4.38;;;;;;;28.73;49.19;100688.84;2097329;28;20044;-74
2022/07/08 04:25:51;;;;;;;7.53;4.05;;;;;;;28.87;48.63;100688.91;2097954;28;20072;-74
2022/07/08 04:27:12;;;;;;;9.07;4.68;;;;;;;29.01;48.29;100688.06;2106701;28;20060;-74
2022/07/08 04:28:35;;;;;;;10.52;4.32;;;;;;;29.16;48.02;100693.41;2108979;28;20490;-74
2022/07/08 04:29:57;;;;;;;6.00;3.80;;;;;;;29.31;47.38;100688.84;2105764;28;20131;-74
2022/07/08 04:31:20;;;;;;;8.10;3.75;;;;;;;29.50;47.15;100685.84;2106763;28;20055;-75
2022/07/08 04:32:41;;;;;;;7.18;4.07;;;;;;;29.64;46.44;100683.13;2107027;28;20055;-74
2022/07/08 04:34:04;;;;;;;9.23;4.05;;;;;;;29.75;46.09;100683.28;2105055;28;20396;-74
2022/07/08 04:35:25;;;;;;;7.30;3.45;;;;;;;29.86;45.85;100686.22;2106603;28;20044;-75
2022/07/08 04:36:48;;;;;;;9.75;4.80;;;;;;;29.99;45.07;100687.19;2107060;28;20135;-75
2022/07/08 04:38:11;;;;;;;6.03;3.78;;;;;;;30.19;44.87;100679.53;2107064;28;20094;-74
2022/07/08 04:39:33;;;;;;;7.95;4.20;;;;;;;30.35;43.95;100683.81;2102471;28;20044;-74
2022/07/08 04:40:55;;;;;;;8.23;4.00;;;;;;;30.51;43.68;100683.69;2102411;28;20079;-74
2022/07/08 04:42:17;;;;;;;9.48;4.32;;;;;;;30.66;43.14;100681.75;2094140;28;20110;-75
2022/07/08 04:43:39;;;;;;;6.95;3.70;;;;;;;30.83;42.94;100679.59;2102454;28;20632;-74
2022/07/08 04:45:02;;;;;;;6.80;3.63;;;;;;;31.04;42.17;100673.63;2102509;28;20086;-74
2022/07/08 04:46:24;;;;;;;6.40;4.10;;;;;;;31.17;41.76;100682.72;2102214;28;20051;-75
2022/07/08 04:47:46;;;;;;;6.15;3.67;;;;;;;31.38;41.22;100683.88;2102464;28;20168;-74
2022/07/08 04:49:08;;;;;;;6.30;4.20;;;;;;;31.56;40.70;100685.28;2102361;28;20048;-75
2022/07/08 04:50:31;;;;;;;7.35;4.15;;;;;;;31.73;40.17;100689.53;2105278;28;20082;-74
2022/07/08 04:51:53;;;;;;;7.72;3.78;;;;;;;31.83;40.06;100692.47;2094104;28;20048;-74
2022/07/08 04:53:17;;;;;;;5.28;3.10;;;;;;;32.02;39.82;100699.19;2101944;28;20078;-75
2022/07/08 04:54:39;;;;;;;6.35;3.70;;;;;;;32.19;39.33;100697.06;2102738;28;20052;-75
2022/07/08 04:56:01;;;;;;;6.03;3.25;;;;;;;32.33;38.93;100696.91;2102200;28;20047;-75
2022/07/08 04:57:23;;;;;;;6.43;3.83;;;;;;;32.49;38.66;100704.81;2102392;28;20044;-75
2022/07/08 04:58:46;;;;;;;7.18;4.22;;;;;;;32.72;38.19;100698.47;2102553;28;20287;-74
2022/07/08 05:00:10;;;;;;;6.78;3.80;;;;;;;32.96;38.04;100702.00;2101880;28;20065;-74
2022/07/08 05:01:32;;;;;;;6.95;3.58;;;;;;;33.22;37.59;100697.22;2102364;28;20059;-75
2022/07/08 05:02:53;;;;;;;8.35;3.60;;;;;;;33.45;37.29;100709.06;2102344;28;20086;-75
2022/07/08 05:04:16;;;;;;;5.32;3.35;;;;;;;33.61;36.70;100702.22;2102169;28;20052;-75
2022/07/08 05:05:38;;;;;;;6.13;3.58;;;;;;;33.78;36.49;100706.38;2102303;28;20079;-75
2022/07/08 05:07:00;;;;;;;6.00;3.38;;;;;;;34.01;36.11;100701.72;2102065;28;20079;-75
2022/07/08 05:08:24;;;;;;;4.70;3.22;;;;;;;34.24;35.58;100695.22;2102053;28;20139;-75
2022/07/08 05:09:46;;;;;;;5.28;3.55;;;;;;;34.46;35.16;100694.28;2105020;28;20059;-75
2022/07/08 05:11:07;;;;;;;6.13;3.10;;;;;;;34.62;34.82;100691.94;2102502;28;20540;-75
2022/07/08 05:12:30;;;;;;;6.35;3.58;;;;;;;34.73;34.57;100686.41;2102133;28;20043;-75
2022/07/08 05:13:51;;;;;;;6.90;3.10;;;;;;;34.90;34.46;100706.94;2102377;28;20051;-75
2022/07/08 05:15:14;;;;;;;5.75;3.10;;;;;;;34.95;34.14;100695.53;2102438;28;20136;-75
2022/07/08 05:16:36;;;;;;;7.70;3.15;;;;;;;35.00;33.65;100698.75;2100656;28;20167;-74
2022/07/08 05:17:59;;;;;;;6.93;3.55;;;;;;;35.08;33.48;100690.72;2101540;28;20047;-75
2022/07/08 05:19:20;;;;;;;4.85;3.17;;;;;;;35.13;33.23;100697.53;2100935;28;20048;-75
2022/07/08 05:20:43;;;;;;;6.22;3.60;;;;;;;35.12;33.00;100695.78;2101452;28;20055;-74
2022/07/08 05:22:05;;;;;;;8.20;3.88;;;;;;;35.15;32.87;100695.53;2091259;28;20076;-75
2022/07/08 05:23:29;;;;;;;5.00;2.83;;;;;;;35.30;32.65;100697.97;2100154;28;20076;-74
2022/07/08 05:24:52;;;;;;;4.47;3.25;;;;;;;35.39;32.41;100698.00;2093536;28;20467;-74
2022/07/08 05:26:13;;;;;;;7.03;3.50;;;;;;;35.51;31.93;100699.63;2099786;28;20448;-75
2022/07/08 05:27:36;;;;;;;4.15;2.90;;;;;;;35.66;31.48;100696.50;2099961;28;20058;-75
2022/07/08 05:28:59;;;;;;;5.55;3.05;;;;;;;35.66;31.60;100691.03;2103737;28;20545;-75
2022/07/08 05:30:22;;;;;;;7.22;3.40;;;;;;;35.65;31.26;100692.03;2093444;28;20072;-75
2022/07/08 05:31:43;;;;;;;5.78;3.20;;;;;;;35.70;31.34;100689.78;2099450;28;20040;-75
2022/07/08 05:33:05;;;;;;;7.10;3.50;;;;;;;35.71;31.07;100688.78;2101572;28;20068;-75
2022/07/08 05:34:28;;;;;;;5.90;4.18;;;;;;;35.85;31.07;100693.88;2104544;28;20077;-75
2022/07/08 05:35:50;;;;;;;5.80;3.13;;;;;;;35.97;31.10;100688.13;2100726;28;20063;-75
2022/07/08 05:37:12;;;;;;;5.47;3.35;;;;;;;36.12;30.75;100696.84;2101427;28;20071;-74
2022/07/08 05:38:35;;;;;;;;;;;;;;;36.14;30.54;100694.81;2096523;28;20123;-75
2022/07/08 05:39:58;;;;;;;8.88;4.15;;;;;;;36.27;30.43;100683.56;2099084;28;19920;-75
2022/07/08 05:41:21;;;;;;;5.13;3.00;;;;;;;36.31;30.55;100685.88;2101785;28;20314;-75
2022/07/08 05:42:43;;;;;;;6.95;3.22;;;;;;;36.45;29.87;100691.97;2104140;28;20052;-75
2022/07/08 05:44:06;;;;;;;8.52;3.50;;;;;;;36.51;30.07;100699.66;2104101;28;20048;-75
2022/07/08 05:45:27;;;;;;;4.78;2.92;;;;;;;36.51;30.09;100680.38;2104259;28;20147;-75
2022/07/08 05:46:49;;;;;;;5.03;3.47;;;;;;;36.49;29.82;100690.69;2104285;28;20153;-76
2022/07/08 05:48:12;;;;;;;4.57;3.08;;;;;;;36.63;29.83;100691.09;2095909;28;20052;-75
2022/07/08 05:49:35;;;;;;;5.93;3.20;;;;;;;36.72;29.29;100695.78;2098779;28;20074;-75
2022/07/08 05:50:58;;;;;;;4.78;3.00;;;;;;;36.75;29.30;100691.88;2102026;28;20042;-75
2022/07/08 05:52:20;;;;;;;8.48;3.53;;;;;;;36.80;29.32;100692.31;2101540;28;20066;-75
2022/07/08 05:53:44;;;;;;;4.70;3.35;;;;;;;36.83;29.15;100691.13;2101207;28;20083;-75
2022/07/08 05:55:06;;;;;;;7.68;3.20;;;;;;;36.84;28.95;100695.63;2101540;28;20513;-75
2022/07/08 05:56:28;;;;;;;4.05;2.95;;;;;;;36.91;29.14;100686.63;2101025;28;20078;-75
2022/07/08 05:57:51;;;;;;;5.20;3.28;;;;;;;36.99;29.08;100697.78;2104230;28;20044;-76
2022/07/08 05:59:12;;;;;;;5.55;3.20;;;;;;;37.00;28.95;100693.13;2101682;28;20108;-76
2022/07/08 06:00:35;;;;;;;7.05;3.90;;;;;;;36.93;29.03;100698.38;2101662;28;20113;-75
2022/07/08 06:01:57;;;;;;;5.43;3.20;;;;;;;36.98;28.70;100693.28;2093426;28;20036;-75
2022/07/08 06:03:19;;;;;;;5.13;3.05;;;;;;;36.98;29.08;100695.16;2098799;28;20392;-75
2022/07/08 06:04:42;;;;;;;7.30;3.55;;;;;;;37.11;28.83;100710.38;2101888;28;20478;-75
2022/07/08 06:06:05;;;;;;;4.75;3.20;;;;;;;37.22;28.86;100703.81;2102037;28;20036;-75
2022/07/08 06:07:27;;;;;;;6.22;3.40;;;;;;;37.14;29.08;100705.63;2104693;28;20080;-75
2022/07/08 06:08:51;;;;;;;6.38;3.03;;;;;;;37.08;28.91;100710.66;2101855;28;20169;-75
2022/07/08 06:10:13;;;;;;;5.43;3.40;;;;;;;37.02;29.10;100705.72;2101966;28;20071;-75
2022/07/08 06:11:36;;;;;;;6.25;3.60;;;;;;;37.05;28.93;100697.19;2104481;28;20393;-75
2022/07/08 06:12:58;;;;;;;8.07;3.17;;;;;;;37.20;28.75;100714.16;2101353;28;20213;-75
2022/07/08 06:14:20;;;;;;;5.22;3.30;;;;;;;37.29;28.53;100706.84;2104783;28;20114;-75
2022/07/08 06:15:43;;;;;;;4.43;3.47;;;;;;;37.23;28.47;100711.06;2099770;28;20048;-75
2022/07/08 06:17:05;;;;;;;8.38;4.38;;;;;;;37.16;28.67;100709.06;2092676;28;20058;-75
2022/07/08 06:18:27;;;;;;;6.38;3.10;;;;;;;37.24;28.76;100703.69;2099013;28;20135;-76
2022/07/08 06:19:49;;;;;;;5.30;3.25;;;;;;;37.23;28.79;100701.94;2101748;28;20040;-76
2022/07/08 06:21:12;;;;;;;5.47;2.75;;;;;;;37.20;28.85;100694.88;2101461;28;20067;-75
2022/07/08 06:22:34;;;;;;;5.15;3.65;;;;;;;37.33;28.75;100700.06;2106723;28;20134;-76
2022/07/08 06:23:58;;;;;;;4.53;3.35;;;;;;;37.42;28.57;100699.13;2106700;28;20052;-76
2022/07/08 06:25:21;;;;;;;3.78;2.85;;;;;;;37.52;28.69;100708.25;2101634;28;20084;-75